Data for 08/10/2018

Time Sea-Level Adjusted Pressure Absolute Pressure Temperature Relative Humidity Dew Point   
(mb) (inHg) (mb) (inHg) (C) (F) (%) (C) (F)
00:05 1024 30.24 853 25.19 20.2 68.4 25 -0.3 31.4
00:10 1024 30.24 853 25.19 19.9 67.9 26 0 32
00:15 1024 30.24 853 25.19 19.7 67.5 24 -1.4 29.4
00:20 1024 30.24 853 25.19 20.1 68.2 23 -1.3 29.7
00:25 1024 30.24 853 25.19 20.2 68.4 24 -0.5 31
00:30 1024 30.24 853 25.19 19.7 67.5 26 -0.1 31.9
00:35 1024 30.24 853 25.19 19.5 67.1 26 -0.1 31.8
00:40 1024 30.24 853 25.19 19.5 67 27 0.1 32.2
00:45 1024 30.24 853 25.19 19.4 66.9 27 -0.1 31.7
00:50 1024 30.24 853 25.19 19.5 67.1 27 0.4 32.7
00:55 1024 30.24 853 25.19 19.2 66.6 27 -0.2 31.7
01:00 1024 30.24 853 25.19 19.6 67.3 26 -0.3 31.5
01:05 1024 30.24 853 25.19 19.7 67.5 27 0.1 32.2
01:10 1024 30.24 853 25.19 19.3 66.8 28 0.4 32.7
01:15 1024 30.24 853 25.19 18.8 65.8 28 0.1 32.3
01:20 1024 30.24 853 25.19 18.8 65.9 27 -0.3 31.5
01:25 1024 30.24 853 25.19 19.2 66.6 27 -0.3 31.5
01:30 1024 30.24 853 25.19 19.3 66.7 28 0.4 32.7
01:35 1024 30.24 853 25.19 18.7 65.7 28 0.2 32.3
01:40 1024 30.24 853 25.19 18.8 65.8 27 -0.7 30.8
01:45 1024 30.24 853 25.19 19.7 67.5 25 -0.7 30.7
01:50 1024 30.24 853 25.19 20 68 24 -0.8 30.6
01:55 1024 30.24 853 25.19 20.1 68.1 26 0.1 32.1
02:00 1024 30.24 853 25.19 19.6 67.2 26 -0.2 31.7
02:05 1024 30.24 853 25.19 19.1 66.4 28 0.5 32.8
02:10 1024 30.24 853 25.19 18.7 65.7 28 -0.2 31.7
02:15 1024 30.24 853 25.19 18.9 66 28 0.3 32.5
02:20 1024 30.24 853 25.19 18.4 65 31 1.2 34.1
02:25 1024 30.24 853 25.19 17.5 63.5 33 1 33.9
02:30 1024 30.24 853 25.19 17.7 63.8 30 0.1 32.2
02:35 1024 30.24 853 25.19 18.1 64.7 30 0.5 32.9
02:40 1024 30.24 853 25.19 18 64.3 30 0.3 32.5
02:45 1024 30.24 853 25.19 17.9 64.3 29 -0.2 31.7
02:50 1024 30.24 853 25.19 18 64.4 31 0.6 33.1
02:55 1024 30.24 853 25.19 17.5 63.4 33 1.1 34
03:00 1024 30.24 853 25.19 17 62.7 34 1.3 34.4
03:05 1024 30.24 853 25.19 16.5 61.7 35 1.1 34.1
03:10 1024 30.24 853 25.19 16.4 61.5 35 1.2 34.1
03:15 1024 30.24 853 25.19 16.3 61.4 35 0.8 33.4
03:20 1024 30.24 853 25.19 16.8 62.2 30 -0.8 30.6
03:25 1024 30.24 853 25.19 18.1 64.6 28 -0.5 31
03:30 1024 30.24 853 25.19 18.2 64.7 29 0.2 32.4
03:35 1024 30.24 853 25.19 17.8 64.1 29 -0.4 31.2
03:40 1024 30.24 853 25.19 17.6 63.7 32 0.6 33.2
03:45 1024 30.24 853 25.19 17.6 63.7 30 -0 32
03:50 1024 30.24 853 25.19 17.7 63.9 30 -0.1 31.8
03:55 1024 30.24 853 25.19 17.6 63.7 30 0.1 32.2
04:00 1024 30.24 853 25.19 17.5 63.6 30 -0.1 31.9
04:05 1024 30.24 853 25.19 17.5 63.6 30 -0.3 31.5
04:10 1024 30.24 853 25.19 17.6 63.6 30 -0.1 31.9
04:15 1024 30.24 853 25.19 17.5 63.6 30 -0.1 31.7
04:20 1024 30.24 854 25.22 17.6 63.6 31 0.2 32.3
04:25 1024 30.24 854 25.22 17.2 62.9 31 -0.1 31.8
04:30 1024 30.24 854 25.22 17.7 63.8 32 1.1 34
04:35 1024 30.24 854 25.22 16.9 62.4 31 -0 31.9
04:40 1024 30.24 854 25.22 17 62.7 31 -0.2 31.6
04:45 1024 30.24 854 25.22 17.5 63.5 29 -0.4 31.3
04:50 1024 30.24 854 25.22 17.6 63.7 29 -0.3 31.4
04:55 1024 30.24 854 25.22 17.7 63.8 30 0 32.1
05:00 1024 30.24 854 25.22 17.2 63 31 0.2 32.4
05:05 1024 30.24 854 25.22 17 62.6 31 -0.1 31.9
05:10 1024 30.24 854 25.22 17 62.6 30 -0.5 31
05:15 1024 30.24 854 25.22 17.2 62.9 31 0 32
05:20 1024 30.24 854 25.22 16.8 62.3 32 0.2 32.3
05:25 1024 30.24 854 25.22 16.4 61.5 34 0.6 33
05:30 1024 30.24 854 25.22 16.1 60.9 35 0.6 33.1
05:35 1024 30.24 854 25.22 16.5 61.7 31 -0.6 30.9
05:40 1024 30.24 854 25.22 17.2 63 30 -0.6 31
05:45 1024 30.24 854 25.22 17.4 63.2 30 -0.3 31.4
05:50 1024 30.24 854 25.22 17.4 63.3 29 -0.6 30.9
05:55 1024 30.24 854 25.22 17.3 63.2 30 -0.2 31.6
06:00 1024 30.24 854 25.22 17 62.7 31 -0.1 31.9
06:05 1024 30.24 854 25.22 16.7 62.1 31 -0.2 31.6
06:10 1024 30.24 854 25.22 17.1 62.7 29 -0.9 30.3
06:15 1024 30.24 854 25.22 17.5 63.5 29 -0.4 31.2
06:20 1024 30.24 854 25.22 17.3 63.1 31 0 32.1
06:25 1025 30.27 854 25.22 16.7 62.1 32 0.1 32.2
06:30 1025 30.27 854 25.22 16.8 62.3 31 -0.4 31.2
06:35 1025 30.27 854 25.22 16.7 62 32 -0.2 31.7
06:40 1025 30.27 854 25.22 16.7 62 32 -0.1 31.9
06:45 1025 30.27 854 25.22 16.8 62.3 31 -0.2 31.7
06:50 1025 30.27 854 25.22 16.9 62.4 31 -0.1 31.8
06:55 1025 30.27 854 25.22 16.9 62.4 32 0.1 32.1
07:00 1025 30.27 854 25.22 16.8 62.2 33 0.4 32.8
07:05 1025 30.27 854 25.22 16.9 62.3 32 0.1 32.2
07:10 1025 30.27 854 25.22 16.9 62.5 34 0.9 33.6
07:15 1025 30.27 854 25.22 16.8 62.3 30 -0.5 31
07:20 1025 30.27 854 25.22 17.8 64 30 0.3 32.5
07:25 1025 30.27 854 25.22 17.6 63.8 31 0.4 32.7
07:30 1025 30.27 854 25.22 17.5 63.5 32 0.8 33.5
07:35 1025 30.27 854 25.22 17.3 63.2 41 4 39.1
07:40 1025 30.27 854 25.22 17.6 63.7 32 0.8 33.4
07:45 1025 30.27 854 25.22 18.1 64.7 35 2.8 37
07:50 1025 30.27 854 25.22 18.4 65.1 34 2.3 36.2
07:55 1025 30.27 854 25.22 18.8 65.9 38 4.2 39.6
08:00 1025 30.27 854 25.22 18.7 65.7 37 3.8 38.8
08:05 1025 30.27 854 25.22 18.8 65.8 42 5.6 42.1
08:10 1025 30.27 854 25.22 19 66.2 40 5.1 41.2
08:15 1025 30.27 854 25.22 19.1 66.3 33 2.7 36.8
08:20 1025 30.27 854 25.22 19.6 67.3 35 3.9 39
08:25 1025 30.27 854 25.22 20.2 68.4 31 2.8 37
08:30 1025 30.27 854 25.22 20.6 69.1 33 3.8 38.8
08:35 1025 30.27 854 25.22 21.1 69.9 34 4.7 40.5
08:40 1025 30.27 854 25.22 21.4 70.4 32 4.2 39.6
08:45 1025 30.27 854 25.22 21.3 70.3 31 3.9 38.9
08:50 1025 30.27 854 25.22 21 69.9 36 5.8 42.4
08:55 1025 30.27 854 25.22 21.9 71.4 29 3.2 37.8
09:00 1025 30.27 854 25.22 22.8 73.1 30 4.8 40.6
09:05 1025 30.27 854 25.22 22.7 72.9 29 3.8 38.9
09:10 1025 30.27 854 25.22 23 73.4 29 4 39.2
09:15 1025 30.27 854 25.22 23.1 73.6 29 4.6 40.2
09:20 1025 30.27 854 25.22 23.1 73.6 29 4.3 39.7
09:25 1025 30.27 854 25.22 22.7 72.9 30 4.4 39.8
09:30 1025 30.27 854 25.22 23.3 74 29 4.3 39.8
09:35 1025 30.27 854 25.22 23 73.4 29 4.2 39.5
09:40 1025 30.27 854 25.22 22.4 72.3 30 4.3 39.8
09:45 1025 30.27 854 25.22 21.9 71.5 30 3.7 38.6
09:50 1025 30.27 854 25.22 22.2 72 27 2.6 36.7
09:55 1025 30.27 854 25.22 22.3 72.1 26 1.9 35.5
10:00 1025 30.27 854 25.22 22.9 73.2 25 1.9 35.5
10:05 1025 30.27 854 25.22 23.4 74.1 24 1.9 35.4
10:10 1025 30.27 854 25.22 23.3 73.9 25 2.5 36.5
10:15 1025 30.27 854 25.22 23.5 74.2 23 1.6 34.9
10:20 1025 30.27 854 25.22 23.8 74.9 23 1.9 35.5
10:25 1025 30.27 854 25.22 24.6 76.3 23 2.3 36.2
10:30 1025 30.27 854 25.22 24.7 76.5 23 2.5 36.4
10:35 1025 30.27 854 25.22 24.5 76.1 23 2.2 36
10:40 1025 30.27 854 25.22 24.9 76.9 22 2.2 36
10:45 1025 30.27 854 25.22 24.9 76.8 21 1.3 34.4
10:50 1025 30.27 854 25.22 24.9 76.8 23 2.3 36.1
10:55 1025 30.27 854 25.22 25 77 23 2.8 37.1
11:00 1025 30.27 854 25.22 25.7 78.2 20 1.6 34.9
11:05 1025 30.27 854 25.22 26.3 79.4 19 0.8 33.4
11:10 1025 30.27 854 25.22 26 78.8 19 1.1 34.1
11:15 1025 30.27 854 25.22 26.2 79.2 19 1.4 34.5
11:20 1025 30.27 854 25.22 27.6 81.6 19 2.1 35.7
11:25 1025 30.27 854 25.22 27.3 81.2 19 1.9 35.4
11:30 1024 30.24 854 25.22 27.5 81.4 19 2 35.6
11:35 1024 30.24 854 25.22 26.9 80.4 19 1.3 34.3
11:40 1024 30.24 854 25.22 27.5 81.5 19 1.8 35.3
11:45 1024 30.24 854 25.22 28 82.3 18 2.1 35.8
11:50 1024 30.24 853 25.19 28.5 83.2 19 2.6 36.7
11:55 1024 30.24 853 25.19 28.7 83.6 18 2.4 36.4
12:00 1024 30.24 853 25.19 28.2 82.8 19 2.8 37.1
12:05 1024 30.24 853 25.19 28.4 83.2 19 2.9 37.2
12:10 1024 30.24 853 25.19 28.1 82.7 19 2.8 37
12:15 1024 30.24 853 25.19 28.6 83.6 18 2.6 36.7
12:20 1024 30.24 853 25.19 29 84.2 18 2.6 36.7
12:25 1024 30.24 853 25.19 28.2 82.8 19 2.7 36.9
12:30 1024 30.24 853 25.19 28.2 82.7 17 1.2 34.2
12:35 1024 30.24 853 25.19 28.7 83.6 17 1.7 35
12:40 1024 30.24 853 25.19 29.3 84.8 15 0.5 32.8
12:45 1024 30.24 853 25.19 28.6 83.4 17 1.2 34.2
12:50 1024 30.24 853 25.19 28.7 83.6 17 1.6 34.8
12:55 1024 30.24 853 25.19 29.2 84.5 16 0.7 33.3
13:00 1024 30.24 853 25.19 29.5 85 16 1.1 34.1
13:05 1023 30.21 853 25.19 30.2 86.4 15 1.5 34.7
13:10 1023 30.21 853 25.19 31.4 88.5 14 1.3 34.4
13:15 1023 30.21 853 25.19 31 87.8 15 1.9 35.4
13:20 1023 30.21 853 25.19 31.4 88.6 14 0.8 33.5
13:25 1023 30.21 853 25.19 31.2 88.2 14 0.5 32.9
13:30 1023 30.21 852 25.16 30.6 87.1 14 0.2 32.4
13:35 1023 30.21 852 25.16 30.2 86.4 14 0.3 32.6
13:40 1023 30.21 852 25.16 30.3 86.5 14 0.5 32.9
13:45 1023 30.21 852 25.16 30.9 87.5 14 0.6 33.1
13:50 1023 30.21 852 25.16 31.6 88.9 13 0.2 32.4
13:55 1023 30.21 852 25.16 32.7 90.8 13 1.5 34.6
14:00 1023 30.21 852 25.16 32.8 91 13 1 33.8
14:05 1023 30.21 852 25.16 32.9 91.3 13 1.2 34.1
14:10 1023 30.21 852 25.16 33 91.3 13 1.3 34.4
14:15 1023 30.21 852 25.16 33.2 91.7 13 1.5 34.7
14:20 1023 30.21 852 25.16 33.3 91.9 13 1.7 35.1
14:25 1023 30.21 852 25.16 33.6 92.5 13 1.5 34.8
14:30 1023 30.21 852 25.16 33.1 91.6 14 2.2 35.9
14:35 1022 30.18 852 25.16 32.8 91.1 13 1.2 34.1
14:40 1022 30.18 852 25.16 33.9 92.9 13 2 35.6
14:45 1022 30.18 852 25.16 33.9 93.1 13 2.6 36.6
14:50 1022 30.18 852 25.16 34.2 93.5 13 1.9 35.4
14:55 1022 30.18 851 25.13 34.5 94 12 1.4 34.5
15:00 1022 30.18 851 25.13 34.1 93.3 12 1.4 34.5
15:05 1022 30.18 851 25.13 33.9 93.1 11 -0.3 31.5
15:10 1022 30.18 851 25.13 34.1 93.4 10 -1.3 29.6
15:15 1022 30.18 851 25.13 34.7 94.5 10 -0.9 30.4
15:20 1022 30.18 851 25.13 34.5 94 11 -0.1 31.8
15:25 1022 30.18 851 25.13 34.4 93.9 11 -0.1 31.8
15:30 1022 30.18 851 25.13 34.3 93.8 10 -1.3 29.7
15:35 1022 30.18 851 25.13 33.7 92.6 9 -3.2 26.2
15:40 1022 30.18 851 25.13 34.1 93.4 9 -3.5 25.8
15:45 1022 30.18 851 25.13 35 95 9 -2.9 26.8
15:50 1022 30.18 851 25.13 35.3 95.5 7 -4.5 23.9
15:55 1022 30.18 851 25.13 35.2 95.4 8 -3.3 26.1
16:00 1022 30.18 851 25.13 34.4 93.9 10 -1.5 29.3
16:05 1022 30.18 851 25.13 34 93.3 8 -4.9 23.3
16:10 1022 30.18 851 25.13 33.7 92.6 8 -4.3 24.3
16:15 1022 30.18 851 25.13 34.2 93.6 8 -5.1 22.9
16:20 1022 30.18 851 25.13 34.6 94.2 7 -5.4 22.3
16:25 1022 30.18 851 25.13 33.6 92.5 7 -5.8 21.5
16:30 1021 30.15 851 25.13 34 93.1 8 -4.5 23.8
16:35 1021 30.15 851 25.13 34.2 93.5 7 -6.3 20.6
16:40 1021 30.15 851 25.13 34.1 93.4 8 -4 24.8
16:45 1021 30.15 851 25.13 34.7 94.5 8 -4.2 24.4
16:50 1021 30.15 850 25.1 35 95 8 -3.3 26.1
16:55 1021 30.15 850 25.1 34.8 94.7 8 -3.9 25.1
17:00 1021 30.15 850 25.1 34.8 94.6 11 0.8 33.5
17:05 1021 30.15 850 25.1 34.7 94.5 10 -0.9 30.3
17:10 1021 30.15 850 25.1 34.7 94.4 11 0.2 32.3
17:15 1021 30.15 850 25.1 34.4 93.9 10 -1.1 30
17:20 1021 30.15 850 25.1 34.8 94.6 11 0.1 32.2
17:25 1021 30.15 850 25.1 35 95 9 -1.7 28.9
17:30 1021 30.15 850 25.1 34.3 93.7 10 -0.9 30.4
17:35 1021 30.15 850 25.1 34.2 93.6 11 -0.3 31.5
17:40 1021 30.15 850 25.1 34.3 93.7 9 -2.1 28.3
17:45 1021 30.15 850 25.1 34.1 93.3 10 -1.7 29
17:50 1021 30.15 850 25.1 33.5 92.4 10 -1.6 29.1
17:55 1021 30.15 850 25.1 33.4 92.1 9 -3.7 25.4
18:00 1021 30.15 850 25.1 33.6 92.6 8 -4.7 23.5
18:05 1021 30.15 850 25.1 33.6 92.5 8 -5.4 22.3
18:10 1021 30.15 850 25.1 33.3 91.9 7 -6.1 21
18:15 1021 30.15 850 25.1 33.7 92.6 7 -6.1 21.1
18:20 1021 30.15 850 25.1 33.8 92.8 8 -5 23
18:25 1021 30.15 850 25.1 33.7 92.7 7 -7.1 19.2
18:30 1021 30.15 850 25.1 33.8 92.8 8 -4.3 24.3
18:35 1021 30.15 850 25.1 33.7 92.7 10 -1.1 30.1
18:40 1021 30.15 850 25.1 33.7 92.6 8 -4.5 23.9
18:45 1021 30.15 850 25.1 33.5 92.3 8 -4.7 23.5
18:50 1020 30.12 850 25.1 33.6 92.4 8 -4.3 24.3
18:55 1020 30.12 850 25.1 33.3 91.9 8 -4.4 24
19:00 1020 30.12 850 25.1 33 91.3 8 -5.7 21.8
19:05 1020 30.12 850 25.1 32.8 91 9 -4.1 24.6
19:10 1020 30.12 850 25.1 32.6 90.7 10 -3.1 26.5
19:15 1020 30.12 850 25.1 32.4 90.4 10 -2.3 27.9
19:20 1020 30.12 850 25.1 32.2 90 10 -2.4 27.7
19:25 1020 30.12 850 25.1 32.1 89.7 10 -2.5 27.5
19:30 1020 30.12 850 25.1 32 89.6 10 -2.6 27.4
19:35 1020 30.12 850 25.1 31.8 89.3 10 -3.1 26.5
19:40 1020 30.12 850 25.1 31.5 88.7 17 4 39.1
19:45 1020 30.12 850 25.1 30.3 86.6 23 7.2 45
19:50 1020 30.12 850 25.1 29.6 85.2 24 7.2 44.9
19:55 1020 30.12 850 25.1 29.2 84.6 25 7.5 45.5
20:00 1020 30.12 850 25.1 28.8 83.8 23 6 42.9
20:05 1020 30.12 850 25.1 28.5 83.4 23 5.8 42.5
20:10 1020 30.12 850 25.1 28.3 82.9 24 6.1 43
20:15 1020 30.12 850 25.1 27.7 81.9 26 6.6 43.9
20:20 1020 30.12 850 25.1 27.3 81.1 27 7.1 44.8
20:25 1020 30.12 850 25.1 26.8 80.3 27 6.5 43.7
20:30 1020 30.12 850 25.1 26 78.7 32 8.4 47.1
20:35 1020 30.12 850 25.1 25.4 77.7 30 6.8 44.2
20:40 1020 30.12 850 25.1 24.9 76.8 31 6.9 44.5
20:45 1021 30.15 850 25.1 24.6 76.2 29 5.9 42.5
20:50 1021 30.15 850 25.1 24.3 75.8 27 4.1 39.5
20:55 1021 30.15 850 25.1 24.3 75.8 27 4.3 39.8
21:00 1021 30.15 850 25.1 24.3 75.7 26 3.9 39
21:05 1021 30.15 850 25.1 23.8 74.9 28 4.5 40.1
21:10 1021 30.15 850 25.1 23.7 74.6 24 1.9 35.4
21:15 1021 30.15 850 25.1 24.5 76.1 23 2.2 35.9
21:20 1021 30.15 850 25.1 24.5 76.1 23 2.5 36.6
21:25 1021 30.15 850 25.1 24 75.3 23 1.6 34.8
21:30 1021 30.15 850 25.1 24 75.2 21 0.5 32.9
21:35 1021 30.15 850 25.1 24.2 75.5 20 0.4 32.7
21:40 1021 30.15 850 25.1 24.3 75.7 22 1.6 34.9
21:45 1021 30.15 850 25.1 23.9 75 24 2.5 36.6
21:50 1021 30.15 850 25.1 23.4 74.1 26 2.9 37.1
21:55 1021 30.15 850 25.1 22.9 73.2 26 2.6 36.7
22:00 1021 30.15 850 25.1 22.9 73.2 25 2.2 35.9
22:05 1021 30.15 850 25.1 23 73.3 26 2.4 36.3
22:10 1021 30.15 850 25.1 22.9 73.3 25 1.9 35.4
22:15 1021 30.15 850 25.1 23.4 74.1 24 2.1 35.7
22:20 1021 30.15 850 25.1 23.2 73.7 26 2.9 37.3
22:25 1021 30.15 850 25.1 22.9 73.3 26 2.6 36.7
22:30 1021 30.15 850 25.1 22.8 73.1 26 2.8 37
22:35 1021 30.15 850 25.1 22.8 73 28 3.8 38.8
22:40 1021 30.15 850 25.1 22.9 73.1 29 4 39.2
22:45 1021 30.15 850 25.1 22.6 72.6 25 1.6 34.9
22:50 1021 30.15 850 25.1 22.7 72.9 26 2.7 36.8
22:55 1021 30.15 850 25.1 22.4 72.3 27 2.8 37
23:00 1021 30.15 850 25.1 22.1 71.8 28 2.8 37
23:05 1021 30.15 850 25.1 22.2 72 27 2.7 36.8
23:10 1021 30.15 850 25.1 22.1 71.8 27 2.4 36.2
23:15 1021 30.15 850 25.1 22 71.6 27 2.6 36.6
23:20 1021 30.15 850 25.1 21.9 71.4 27 2.3 36.2
23:25 1021 30.15 850 25.1 21.7 71 27 2.2 36
23:30 1021 30.15 850 25.1 21.6 70.9 28 2.4 36.4
23:35 1021 30.15 850 25.1 21.4 70.5 29 2.8 37
23:40 1021 30.15 850 25.1 21.3 70.4 28 2.2 36
23:45 1021 30.15 850 25.1 21.2 70.2 29 2.8 37.1
23:50 1021 30.15 850 25.1 21.2 70.1 28 2.2 36
23:55 1021 30.15 850 25.1 21.2 70.1 28 2.1 35.8
24:00 1021 30.15 850 25.1 21.4 70.5 25 0.5 33